createdAt,value
2022-12-20T20:38:26.040Z,5.91
2022-12-20T20:43:27.212Z,6.00
2022-12-20T20:48:28.563Z,5.86
2022-12-20T20:53:33.833Z,6.03
2022-12-20T20:58:31.212Z,5.85
2022-12-20T21:03:32.462Z,5.70
2022-12-20T21:08:33.742Z,5.82
2022-12-20T21:13:34.933Z,5.71
2022-12-20T21:18:36.095Z,5.75
2022-12-20T21:23:37.288Z,5.78
2022-12-20T21:28:38.442Z,5.74
2022-12-20T21:33:39.615Z,5.60
2022-12-20T21:38:40.835Z,5.31
2022-12-20T21:43:41.988Z,5.13
2022-12-20T21:48:43.135Z,5.25
2022-12-20T21:53:44.275Z,5.22
2022-12-20T21:58:45.424Z,5.31
2022-12-20T22:03:46.521Z,5.34
2022-12-20T22:08:47.666Z,5.30
2022-12-20T22:13:49.756Z,5.23
2022-12-20T22:18:49.853Z,5.01
2022-12-20T22:23:49.930Z,4.70
2022-12-20T22:28:50.111Z,4.79
2022-12-20T22:33:50.385Z,4.80
2022-12-20T22:38:49.524Z,4.86
2022-12-20T22:43:51.632Z,4.84
2022-12-20T22:48:50.787Z,4.72
2022-12-20T22:53:51.935Z,4.65
2022-12-20T22:58:53.140Z,4.54
2022-12-20T23:03:54.454Z,4.73
2022-12-20T23:08:55.627Z,4.75
2022-12-20T23:13:56.799Z,4.44
2022-12-20T23:18:57.883Z,4.43
2022-12-20T23:23:59.002Z,4.52
2022-12-20T23:29:00.138Z,4.61
2022-12-20T23:34:01.233Z,4.54
2022-12-20T23:39:02.370Z,4.54
2022-12-20T23:44:03.503Z,4.51
2022-12-20T23:49:05.611Z,4.58
2022-12-20T23:54:04.751Z,4.39
2022-12-20T23:59:06.849Z,4.47
